createdAt,value
2018-12-07T00:00:16.871Z,13.57
2018-12-07T00:02:45.229Z,14.53
2018-12-07T00:05:13.556Z,12.47
2018-12-07T00:07:41.885Z,13.97
2018-12-07T00:10:10.160Z,13.10
2018-12-07T00:12:38.502Z,14.10
2018-12-07T00:15:08.144Z,12.57
2018-12-07T00:17:36.402Z,11.30
2018-12-07T00:20:07.500Z,12.77
2018-12-07T00:22:35.798Z,12.47
2018-12-07T00:25:04.702Z,11.80
2018-12-07T00:27:32.998Z,13.90
2018-12-07T00:30:01.345Z,12.20
2018-12-07T00:32:29.736Z,12.90
2018-12-07T00:34:57.898Z,12.60
2018-12-07T00:37:26.184Z,12.07
2018-12-07T00:39:54.370Z,11.20
2018-12-07T00:42:22.688Z,12.40
2018-12-07T00:44:50.973Z,12.10
2018-12-07T00:47:19.190Z,11.47
2018-12-07T00:49:47.588Z,12.07
2018-12-07T00:52:15.812Z,11.00
2018-12-07T00:54:44.048Z,11.43
2018-12-07T00:57:12.370Z,10.73
2018-12-07T00:59:40.596Z,11.13
2018-12-07T01:02:08.987Z,11.80
2018-12-07T01:04:37.243Z,11.73
2018-12-07T01:07:05.560Z,11.30
2018-12-07T01:09:33.735Z,10.77
2018-12-07T01:12:02.058Z,11.10
2018-12-07T01:14:30.271Z,10.63
2018-12-07T01:16:58.577Z,10.70
2018-12-07T01:19:26.755Z,10.40
2018-12-07T01:21:55.013Z,9.97
2018-12-07T01:24:23.254Z,10.00
2018-12-07T01:26:51.466Z,9.60
2018-12-07T01:29:19.633Z,10.60
2018-12-07T01:31:47.881Z,9.97
2018-12-07T01:34:16.085Z,10.07
2018-12-07T01:36:44.301Z,10.03
2018-12-07T01:39:12.697Z,9.03
2018-12-07T01:41:40.989Z,9.63
2018-12-07T01:44:09.253Z,9.77
2018-12-07T01:46:37.521Z,10.30
2018-12-07T01:49:05.773Z,9.40
2018-12-07T01:51:33.982Z,10.30
2018-12-07T01:54:02.222Z,10.10
2018-12-07T01:56:30.486Z,9.40
2018-12-07T01:58:58.772Z,9.97
2018-12-07T02:01:26.984Z,9.63
2018-12-07T02:03:55.223Z,10.93
2018-12-07T02:06:23.467Z,9.50
2018-12-07T02:08:51.808Z,10.87
2018-12-07T02:11:20.174Z,10.13
2018-12-07T02:13:48.401Z,9.90
2018-12-07T02:16:16.606Z,11.00
2018-12-07T02:18:44.859Z,9.90
2018-12-07T02:21:13.140Z,10.33
2018-12-07T02:23:41.503Z,9.23
2018-12-07T02:26:09.796Z,9.77
2018-12-07T02:28:38.203Z,10.17
2018-12-07T02:31:06.467Z,10.00
2018-12-07T02:33:34.859Z,8.87
2018-12-07T02:36:03.311Z,10.27
2018-12-07T02:38:31.608Z,10.00
2018-12-07T02:40:59.925Z,10.43
2018-12-07T02:43:28.127Z,9.70
2018-12-07T02:45:56.431Z,10.80
2018-12-07T02:48:24.777Z,10.00
2018-12-07T02:50:53.425Z,10.07
2018-12-07T02:53:21.901Z,10.40
2018-12-07T02:55:50.288Z,11.57
2018-12-07T02:58:18.667Z,11.80
2018-12-07T03:00:46.992Z,12.10
2018-12-07T03:03:15.298Z,12.27
2018-12-07T03:05:43.526Z,11.93
2018-12-07T03:08:12.058Z,12.60
2018-12-07T03:10:40.241Z,12.00
2018-12-07T03:13:08.687Z,12.20
2018-12-07T03:15:36.974Z,14.03
2018-12-07T03:18:07.235Z,13.80
2018-12-07T03:20:35.759Z,13.60
2018-12-07T03:23:04.276Z,15.40
2018-12-07T03:25:32.770Z,14.73
2018-12-07T03:30:48.713Z,16.07
2018-12-07T03:33:17.192Z,15.97
2018-12-07T03:35:45.616Z,16.77
2018-12-07T03:38:14.217Z,17.70
2018-12-07T03:40:42.688Z,17.10
2018-12-07T03:43:11.307Z,17.90
2018-12-07T03:45:39.861Z,16.07
2018-12-07T03:48:08.451Z,16.30
2018-12-07T03:50:36.611Z,15.40
2018-12-07T03:53:04.893Z,16.60
2018-12-07T03:55:33.129Z,16.23
2018-12-07T03:58:01.457Z,16.20
2018-12-07T04:00:29.785Z,15.20
2018-12-07T04:02:58.037Z,16.00
2018-12-07T04:05:26.390Z,17.00
2018-12-07T04:07:54.609Z,17.57
2018-12-07T04:10:22.824Z,16.43
2018-12-07T04:12:50.968Z,16.80
2018-12-07T04:15:19.343Z,14.87
2018-12-07T04:17:47.539Z,15.40
2018-12-07T04:20:15.843Z,16.87
2018-12-07T04:22:44.075Z,17.10
2018-12-07T04:25:12.271Z,16.30
2018-12-07T04:27:40.433Z,15.97
2018-12-07T04:30:22.278Z,15.90
2018-12-07T04:32:50.679Z,17.33
2018-12-07T04:35:18.974Z,17.20
2018-12-07T04:37:47.260Z,18.40
2018-12-07T04:40:15.751Z,16.10
2018-12-07T04:42:44.109Z,16.27
2018-12-07T04:45:12.449Z,16.93
2018-12-07T04:47:40.924Z,16.43
2018-12-07T04:50:09.232Z,16.50
2018-12-07T04:52:37.688Z,16.70
2018-12-07T04:55:06.319Z,16.83
2018-12-07T04:57:34.606Z,17.83
2018-12-07T05:00:02.936Z,18.47
2018-12-07T05:02:31.269Z,17.20
2018-12-07T05:04:59.488Z,17.47
2018-12-07T05:07:27.682Z,18.03
2018-12-07T05:09:56.125Z,18.20
2018-12-07T05:12:24.359Z,19.20
2018-12-07T05:14:52.626Z,18.00
2018-12-07T05:17:20.868Z,18.70
2018-12-07T05:19:49.074Z,18.60
2018-12-07T05:22:17.227Z,17.47
2018-12-07T05:24:45.490Z,19.03
2018-12-07T05:27:13.702Z,18.50
2018-12-07T05:29:41.993Z,18.50
2018-12-07T05:32:10.253Z,18.03
2018-12-07T05:34:38.519Z,17.30
2018-12-07T05:37:06.803Z,17.43
2018-12-07T05:39:35.059Z,17.83
2018-12-07T05:42:03.489Z,16.80
2018-12-07T05:44:31.965Z,17.03
2018-12-07T05:47:00.209Z,16.50
2018-12-07T05:49:28.401Z,16.53
2018-12-07T05:51:56.672Z,17.70
2018-12-07T05:54:24.973Z,16.90
2018-12-07T05:56:53.203Z,18.43
2018-12-07T05:59:21.378Z,17.70
2018-12-07T06:01:49.777Z,17.27
2018-12-07T06:04:18.050Z,15.97
2018-12-07T06:06:46.267Z,17.20
2018-12-07T06:09:14.570Z,15.43
2018-12-07T06:11:42.808Z,17.10
2018-12-07T06:14:11.057Z,16.27
2018-12-07T06:16:39.764Z,16.90
2018-12-07T06:19:08.023Z,16.60
2018-12-07T06:21:36.229Z,16.60
2018-12-07T06:24:04.438Z,16.50
2018-12-07T06:26:32.839Z,16.17
2018-12-07T06:29:01.127Z,16.13
2018-12-07T06:31:29.440Z,16.17
2018-12-07T06:33:57.642Z,16.43
2018-12-07T06:36:25.891Z,15.40
2018-12-07T06:38:54.135Z,15.57
2018-12-07T06:41:23.012Z,15.43
2018-12-07T06:43:51.294Z,15.83
2018-12-07T06:46:19.618Z,16.70
2018-12-07T06:48:58.163Z,15.50
2018-12-07T06:51:26.494Z,15.27
2018-12-07T06:53:54.869Z,15.50
2018-12-07T06:56:23.250Z,15.97
2018-12-07T06:58:51.524Z,15.67
2018-12-07T07:01:19.913Z,15.17
2018-12-07T07:03:48.418Z,14.50
2018-12-07T07:06:16.792Z,16.03
2018-12-07T07:08:45.083Z,16.30
2018-12-07T07:11:13.452Z,14.40
2018-12-07T07:13:41.969Z,16.73
2018-12-07T07:16:10.374Z,15.60
2018-12-07T07:18:38.794Z,14.73
2018-12-07T07:21:07.172Z,15.80
2018-12-07T07:23:35.600Z,15.63
2018-12-07T07:26:04.030Z,16.00
2018-12-07T07:28:32.412Z,14.97
2018-12-07T07:31:00.654Z,15.20
2018-12-07T07:33:28.934Z,13.97
2018-12-07T07:35:57.244Z,14.40
2018-12-07T07:38:25.618Z,14.10
2018-12-07T07:40:54.056Z,13.97
2018-12-07T07:43:22.325Z,13.73
2018-12-07T07:45:50.656Z,14.83
2018-12-07T07:48:18.938Z,13.73
2018-12-07T07:50:47.240Z,13.97
2018-12-07T07:53:15.521Z,12.97
2018-12-07T07:55:43.861Z,13.47
2018-12-07T07:58:12.107Z,13.60
2018-12-07T08:00:40.559Z,12.67
2018-12-07T08:03:08.818Z,12.77
2018-12-07T08:05:37.164Z,13.07
2018-12-07T08:08:05.466Z,12.80
2018-12-07T08:10:33.792Z,13.17
2018-12-07T08:13:02.119Z,12.17
2018-12-07T08:15:30.447Z,11.60
2018-12-07T08:17:58.772Z,12.03
2018-12-07T08:20:27.130Z,11.47
2018-12-07T08:22:55.539Z,11.90
2018-12-07T08:25:23.994Z,10.67
2018-12-07T08:27:52.532Z,10.70
2018-12-07T08:30:20.946Z,11.53
2018-12-07T08:32:55.944Z,11.20
2018-12-07T08:35:24.501Z,11.27
2018-12-07T08:37:52.830Z,10.03
2018-12-07T08:40:21.224Z,10.00
2018-12-07T08:42:50.379Z,11.13
2018-12-07T08:45:18.770Z,10.37
2018-12-07T08:47:47.078Z,9.77
2018-12-07T08:50:15.612Z,10.67
2018-12-07T08:52:43.988Z,11.37
2018-12-07T08:55:12.369Z,10.23
2018-12-07T08:57:40.706Z,9.23
2018-12-07T09:00:10.268Z,9.40
2018-12-07T09:02:38.594Z,8.70
2018-12-07T09:05:07.312Z,8.40
2018-12-07T09:07:35.690Z,8.10
2018-12-07T09:10:04.494Z,8.63
2018-12-07T09:12:33.442Z,7.63
2018-12-07T09:15:01.648Z,7.27
2018-12-07T09:17:29.972Z,6.57
2018-12-07T09:19:58.318Z,6.00
2018-12-07T09:22:26.745Z,6.20
2018-12-07T09:24:55.178Z,6.13
2018-12-07T09:27:23.450Z,6.50
2018-12-07T09:29:52.670Z,6.03
2018-12-07T09:32:20.933Z,5.80
2018-12-07T09:34:49.303Z,5.00
2018-12-07T09:37:18.103Z,4.83
2018-12-07T09:39:46.450Z,4.67
2018-12-07T09:42:14.914Z,4.93
2018-12-07T09:44:43.278Z,5.27
2018-12-07T09:47:11.635Z,4.40
2018-12-07T09:49:40.641Z,4.67
2018-12-07T09:52:09.014Z,5.13
2018-12-07T09:54:37.542Z,4.70
2018-12-07T09:57:06.106Z,4.90
2018-12-07T09:59:34.355Z,4.77
2018-12-07T10:02:02.793Z,4.50
2018-12-07T10:04:31.315Z,5.23
2018-12-07T10:06:59.604Z,4.30
2018-12-07T10:09:28.231Z,3.80
2018-12-07T10:11:56.711Z,4.13
2018-12-07T10:14:25.088Z,4.10
2018-12-07T10:16:59.881Z,3.87
2018-12-07T10:19:28.211Z,4.23
2018-12-07T10:21:56.795Z,3.87
2018-12-07T10:24:25.169Z,3.33
2018-12-07T10:26:53.669Z,3.70
2018-12-07T10:29:21.978Z,3.30
2018-12-07T10:31:50.916Z,3.67
2018-12-07T10:34:19.179Z,3.30
2018-12-07T10:36:47.624Z,3.10
2018-12-07T10:39:15.945Z,2.87
2018-12-07T10:41:44.372Z,2.63
2018-12-07T10:44:12.887Z,2.60
2018-12-07T10:46:41.400Z,2.50
2018-12-07T10:49:09.783Z,2.67
2018-12-07T10:51:38.130Z,2.30
2018-12-07T10:54:06.817Z,1.93
2018-12-07T10:56:35.792Z,2.20
2018-12-07T10:59:04.230Z,1.60
2018-12-07T11:01:38.093Z,2.10
2018-12-07T11:04:11.978Z,1.60
2018-12-07T11:06:45.948Z,1.57
2018-12-07T11:09:19.959Z,1.50
2018-12-07T11:11:52.596Z,1.60
2018-12-07T11:14:26.598Z,1.50
2018-12-07T11:17:00.490Z,1.43
2018-12-07T11:19:34.197Z,1.47
2018-12-07T11:22:08.026Z,1.33
2018-12-07T11:24:41.928Z,1.50
2018-12-07T11:27:15.722Z,1.60
2018-12-07T11:29:49.591Z,1.23
2018-12-07T11:32:24.006Z,1.27
2018-12-07T11:34:59.404Z,1.77
2018-12-07T11:37:27.680Z,1.43
2018-12-07T11:39:56.060Z,1.70
2018-12-07T11:42:24.654Z,1.77
2018-12-07T11:45:09.062Z,1.40
2018-12-07T11:47:37.690Z,1.80
2018-12-07T11:50:07.438Z,1.60
2018-12-07T11:52:35.996Z,1.80
2018-12-07T11:55:04.827Z,1.80
2018-12-07T11:57:33.134Z,2.23
2018-12-07T12:00:01.444Z,1.97
2018-12-07T12:02:29.925Z,1.70
2018-12-07T12:04:58.172Z,1.50
2018-12-07T12:07:26.485Z,1.80
2018-12-07T12:09:54.712Z,1.70
2018-12-07T12:12:23.217Z,1.70
2018-12-07T12:14:51.497Z,1.63
2018-12-07T12:17:20.139Z,1.60
2018-12-07T12:19:48.491Z,1.70
2018-12-07T12:22:16.901Z,1.77
2018-12-07T12:24:45.313Z,1.80
2018-12-07T12:27:14.301Z,1.77
2018-12-07T12:29:42.682Z,1.93
2018-12-07T12:33:09.637Z,2.70
2018-12-07T13:02:44.949Z,2.80
2018-12-07T13:05:13.439Z,2.63
2018-12-07T13:07:41.683Z,3.43
2018-12-07T13:10:10.005Z,2.63
2018-12-07T13:12:38.286Z,2.60
2018-12-07T13:15:07.054Z,3.23
2018-12-07T13:17:35.397Z,3.23
2018-12-07T13:20:04.288Z,2.90
2018-12-07T13:22:32.508Z,3.10
2018-12-07T13:25:00.931Z,3.27
2018-12-07T13:27:29.216Z,3.67
2018-12-07T13:29:57.520Z,3.13
2018-12-07T13:32:26.066Z,3.60
2018-12-07T13:34:54.420Z,3.87
2018-12-07T13:37:22.828Z,3.93
2018-12-07T13:39:51.284Z,3.93
2018-12-07T13:42:19.593Z,3.90
2018-12-07T13:45:11.475Z,4.07
2018-12-07T13:47:40.137Z,3.80
2018-12-07T13:53:17.489Z,3.90
2018-12-07T13:55:46.204Z,4.23
2018-12-07T13:58:16.760Z,4.33
2018-12-07T14:00:45.386Z,3.97
2018-12-07T14:03:19.796Z,3.73
2018-12-07T14:05:48.375Z,3.40
2018-12-07T14:08:16.840Z,4.00
2018-12-07T14:10:45.484Z,3.57
2018-12-07T14:13:14.278Z,2.73
2018-12-07T14:15:42.815Z,3.70
2018-12-07T14:18:12.551Z,3.20
2018-12-07T14:20:41.113Z,3.13
2018-12-07T14:23:09.802Z,3.70
2018-12-07T14:25:38.375Z,3.80
2018-12-07T14:28:06.770Z,3.77
2018-12-07T14:30:36.137Z,4.30
2018-12-07T14:33:04.849Z,4.27
2018-12-07T14:35:33.289Z,3.90
2018-12-07T14:38:01.949Z,4.23
2018-12-07T14:40:30.590Z,4.07
2018-12-07T14:42:59.203Z,4.00
2018-12-07T14:45:27.670Z,4.27
2018-12-07T14:47:56.273Z,4.63
2018-12-07T14:50:25.026Z,4.40
2018-12-07T14:52:53.625Z,5.13
2018-12-07T14:55:22.146Z,5.00
2018-12-07T14:57:50.853Z,5.10
2018-12-07T15:00:19.365Z,5.70
2018-12-07T15:02:50.493Z,4.60
2018-12-07T15:05:24.097Z,5.30
2018-12-07T15:07:52.745Z,5.03
2018-12-07T15:10:25.397Z,5.23
2018-12-07T15:12:54.523Z,5.40
2018-12-07T15:15:23.318Z,4.73
2018-12-07T15:17:51.859Z,6.40
2018-12-07T15:20:20.477Z,5.60
2018-12-07T15:22:49.178Z,5.80
2018-12-07T15:25:17.877Z,6.70
2018-12-07T15:27:46.292Z,5.67
2018-12-07T15:30:15.176Z,5.40
2018-12-07T15:32:44.110Z,18.13
2018-12-07T15:35:12.746Z,55.43
2018-12-07T15:37:41.284Z,28.73
2018-12-07T15:40:10.345Z,8.50
2018-12-07T15:42:39.869Z,8.23
2018-12-07T15:45:08.970Z,4.80
2018-12-07T15:47:37.838Z,5.30
2018-12-07T15:50:08.697Z,5.33
2018-12-07T15:52:37.092Z,4.90
2018-12-07T15:55:06.044Z,4.50
2018-12-07T15:57:34.870Z,4.70
2018-12-07T16:00:03.868Z,4.60
2018-12-07T16:02:32.306Z,5.97
2018-12-07T16:05:00.567Z,4.30
2018-12-07T16:07:29.244Z,4.30
2018-12-07T16:09:57.821Z,4.70
2018-12-07T16:12:26.293Z,4.23
2018-12-07T16:14:54.862Z,4.60
2018-12-07T16:17:23.295Z,4.47
2018-12-07T16:19:52.087Z,5.10
2018-12-07T16:22:20.810Z,4.53
2018-12-07T16:24:49.483Z,4.73
2018-12-07T16:27:18.299Z,4.63
2018-12-07T16:29:46.916Z,5.27
2018-12-07T16:32:15.785Z,4.70
2018-12-07T16:34:45.832Z,5.63
2018-12-07T16:37:14.303Z,5.97
2018-12-07T16:39:43.375Z,6.63
2018-12-07T16:42:11.824Z,7.33
2018-12-07T16:44:40.127Z,8.30
2018-12-07T16:47:08.854Z,8.60
2018-12-07T16:49:37.587Z,8.20
2018-12-07T16:52:06.438Z,8.90
2018-12-07T16:54:35.021Z,8.87
2018-12-07T16:57:03.626Z,9.40
2018-12-07T16:59:32.222Z,10.37
2018-12-07T17:02:00.891Z,9.07
2018-12-07T17:04:29.575Z,9.23
2018-12-07T17:06:59.112Z,8.83
2018-12-07T17:09:28.161Z,9.10
2018-12-07T17:11:56.627Z,9.23
2018-12-07T17:14:25.200Z,9.17
2018-12-07T17:16:53.839Z,8.40
2018-12-07T17:19:22.261Z,7.80
2018-12-07T17:21:51.010Z,7.90
2018-12-07T17:24:19.585Z,7.47
2018-12-07T17:26:48.125Z,8.10
2018-12-07T17:29:16.464Z,8.40
2018-12-07T17:31:45.174Z,8.60
2018-12-07T17:34:13.682Z,8.40
2018-12-07T17:36:42.142Z,8.90
2018-12-07T17:39:10.652Z,8.57
2018-12-07T17:41:39.233Z,8.23
2018-12-07T17:44:08.164Z,8.70
2018-12-07T17:46:36.684Z,8.97
2018-12-07T17:49:05.140Z,9.20
2018-12-07T17:51:33.778Z,9.47
2018-12-07T17:54:02.342Z,9.37
2018-12-07T17:56:30.852Z,8.83
2018-12-07T17:58:59.437Z,9.43
2018-12-07T18:01:27.896Z,8.50
2018-12-07T18:04:00.168Z,9.13
2018-12-07T18:06:30.591Z,9.10
2018-12-07T18:09:00.135Z,8.80
2018-12-07T18:11:28.539Z,9.33
2018-12-07T18:13:57.210Z,8.90
2018-12-07T18:16:26.143Z,8.77
2018-12-07T18:18:55.084Z,7.90
2018-12-07T18:21:23.663Z,8.93
2018-12-07T18:23:52.274Z,9.47
2018-12-07T18:26:20.983Z,9.37
2018-12-07T18:28:49.443Z,9.77
2018-12-07T18:31:18.166Z,10.07
2018-12-07T18:33:46.761Z,10.83
2018-12-07T18:36:15.337Z,10.13
2018-12-07T18:38:43.872Z,10.80
2018-12-07T18:41:12.447Z,11.13
2018-12-07T18:43:40.708Z,18.77
2018-12-07T18:46:09.371Z,35.73
2018-12-07T18:48:37.772Z,22.47
2018-12-07T18:51:07.586Z,10.23
2018-12-07T18:53:35.993Z,10.40
2018-12-07T18:56:04.515Z,11.60
2018-12-07T18:58:33.290Z,11.47
2018-12-07T19:01:02.202Z,9.80
2018-12-07T19:03:30.543Z,9.67
2018-12-07T19:05:58.934Z,9.17
2018-12-07T19:08:28.047Z,8.90
2018-12-07T19:10:56.386Z,9.70
2018-12-07T19:13:24.804Z,8.80
2018-12-07T19:15:53.255Z,7.80
2018-12-07T19:18:21.580Z,8.47
2018-12-07T19:20:50.117Z,8.50
2018-12-07T19:23:18.979Z,8.10
2018-12-07T19:25:47.421Z,7.00
2018-12-07T19:28:15.818Z,7.13
2018-12-07T19:30:44.727Z,8.13
2018-12-07T19:33:13.623Z,6.70
2018-12-07T19:35:42.173Z,6.80
2018-12-07T19:38:11.765Z,7.20
2018-12-07T19:40:40.989Z,7.63
2018-12-07T19:43:10.169Z,7.60
2018-12-07T19:45:39.185Z,7.50
2018-12-07T19:48:07.489Z,8.50
2018-12-07T19:50:36.191Z,8.40
2018-12-07T19:53:06.284Z,7.90
2018-12-07T19:55:34.673Z,9.33
2018-12-07T19:58:03.235Z,9.43
2018-12-07T20:00:31.713Z,10.00
2018-12-07T20:03:00.077Z,8.50
2018-12-07T20:05:28.830Z,10.30
2018-12-07T20:07:58.011Z,10.40
2018-12-07T20:10:26.604Z,9.67
2018-12-07T20:12:55.001Z,9.90
2018-12-07T20:15:23.867Z,9.60
2018-12-07T20:17:52.425Z,9.80
2018-12-07T20:20:20.735Z,10.33
2018-12-07T20:22:49.082Z,9.93
2018-12-07T20:25:17.530Z,9.93
2018-12-07T20:27:45.851Z,10.00
2018-12-07T20:30:14.480Z,10.40
2018-12-07T20:32:43.583Z,9.70
2018-12-07T20:35:12.555Z,9.50
2018-12-07T20:37:41.365Z,9.33
2018-12-07T20:40:11.936Z,9.90
2018-12-07T20:42:40.358Z,9.40
2018-12-07T20:45:09.032Z,8.93
2018-12-07T20:47:37.775Z,8.20
2018-12-07T20:50:07.435Z,7.77
2018-12-07T20:52:35.920Z,7.37
2018-12-07T20:55:04.603Z,6.00
2018-12-07T20:57:32.999Z,4.77
2018-12-07T21:00:01.860Z,5.07
2018-12-07T21:02:30.433Z,4.80
2018-12-07T21:05:04.276Z,4.37
2018-12-07T21:07:53.921Z,4.63
2018-12-07T21:11:02.790Z,3.50
2018-12-07T21:13:41.841Z,2.93
2018-12-07T21:17:12.339Z,2.50
2018-12-07T21:19:57.157Z,1.70
2018-12-07T21:22:32.125Z,1.53
2018-12-07T21:25:00.648Z,1.77
2018-12-07T21:27:28.995Z,1.57
2018-12-07T21:30:23.212Z,1.37
2018-12-07T21:32:51.544Z,1.40
2018-12-07T21:35:19.993Z,1.27
2018-12-07T21:37:48.649Z,1.13
2018-12-07T21:40:22.495Z,1.10
2018-12-07T21:42:51.094Z,0.80
2018-12-07T21:45:19.697Z,0.80
2018-12-07T21:48:33.352Z,1.00
2018-12-07T21:51:11.475Z,0.80
2018-12-07T21:53:39.843Z,0.90
2018-12-07T21:56:08.459Z,1.00
2018-12-07T21:58:37.203Z,0.80
2018-12-07T22:01:05.711Z,0.60
2018-12-07T22:03:34.152Z,0.80
2018-12-07T22:06:02.660Z,1.07
2018-12-07T22:08:31.314Z,1.00
2018-12-07T22:11:00.029Z,0.90
2018-12-07T22:13:28.401Z,1.03
2018-12-07T22:15:56.752Z,0.93
2018-12-07T22:18:25.005Z,0.90
2018-12-07T22:20:53.225Z,0.60
2018-12-07T22:23:21.769Z,1.00
2018-12-07T22:25:50.599Z,0.80
2018-12-07T22:28:19.537Z,0.60
2018-12-07T22:30:47.959Z,0.87
2018-12-07T22:33:16.412Z,0.70
2018-12-07T22:35:44.659Z,0.70
2018-12-07T22:38:13.028Z,0.70
2018-12-07T22:40:41.603Z,0.80
2018-12-07T22:43:10.112Z,0.80
2018-12-07T22:45:38.530Z,0.83
2018-12-07T22:48:07.258Z,0.77
2018-12-07T22:50:35.713Z,0.70
2018-12-07T22:53:03.904Z,0.87
2018-12-07T22:55:32.141Z,0.77
2018-12-07T22:58:00.514Z,0.60
2018-12-07T23:00:28.820Z,0.80
2018-12-07T23:02:57.232Z,0.80
2018-12-07T23:05:25.544Z,0.80
2018-12-07T23:07:53.912Z,0.60
2018-12-07T23:10:23.450Z,0.70
2018-12-07T23:12:51.810Z,0.80
2018-12-07T23:15:20.135Z,0.60
2018-12-07T23:17:48.474Z,0.60
2018-12-07T23:20:17.183Z,0.60
2018-12-07T23:22:49.051Z,0.60
2018-12-07T23:25:17.085Z,0.70
2018-12-07T23:27:45.403Z,0.70
2018-12-07T23:30:13.720Z,0.60
2018-12-07T23:32:41.932Z,0.60
2018-12-07T23:35:10.313Z,0.73
2018-12-07T23:37:38.600Z,0.90
2018-12-07T23:40:08.345Z,0.60
2018-12-07T23:42:39.869Z,0.70
2018-12-07T23:45:10.101Z,0.60
2018-12-07T23:47:38.477Z,0.60
2018-12-07T23:50:07.038Z,0.57
2018-12-07T23:52:35.609Z,0.60
2018-12-07T23:55:04.754Z,0.60
2018-12-07T23:57:32.971Z,0.80
